<?xml version="1.0" encoding="UTF-8" standalone="no" ?>
<gpx xmlns="http://www.topografix.com/GPX/1/1" xmlns:xsi="http://www.w3.org/2001/XMLSchema-instance" xsi:schemaLocation="http://www.topografix.com/GPX/1/1 http://www.topografix.com/GPX/1/1/gpx.xsd" version="1.1" creator="VisuGPX - https://www.visugpx.com">
  <metadata>
    <name>ARQUES LA SEYNE SUR MER 1497 KM</name>
    <desc><![CDATA[Rando de Arques dans le Pas de Calais jusque La Seyne sur Mer dans le Var, 1497 km]]></desc>
  </metadata>
  <trk>
    <name><![CDATA[38 - VIOLAY BRULLIOLES 19.5 KM]]></name>
    <extensions>
      <line xmlns="http://www.topografix.com/GPX/gpx_style/0/2">
        <color>00FF00</color>
        <width>4</width>
      </line>
    </extensions>
    <trkseg>
      <trkpt lat="45.85294" lon="4.35757">
        <ele>829</ele>
        <time>2021-11-23T09:59:39+01:00</time>
      </trkpt>
      <trkpt lat="45.85351" lon="4.35849">
        <ele>833</ele>
        <time>2021-11-23T09:59:44+01:00</time>
      </trkpt>
      <trkpt lat="45.8538" lon="4.36003">
        <ele>832</ele>
        <time>2021-11-23T09:59:49+01:00</time>
      </trkpt>
      <trkpt lat="45.85421" lon="4.36102">
        <ele>839</ele>
        <time>2021-11-23T09:59:54+01:00</time>
      </trkpt>
      <trkpt lat="45.85426" lon="4.36202">
        <ele>842</ele>
        <time>2021-11-23T09:59:59+01:00</time>
      </trkpt>
      <trkpt lat="45.85383" lon="4.36258">
        <ele>844</ele>
        <time>2021-11-23T10:00:04+01:00</time>
      </trkpt>
      <trkpt lat="45.85328" lon="4.36298">
        <ele>850</ele>
        <time>2021-11-23T10:00:09+01:00</time>
      </trkpt>
      <trkpt lat="45.8548" lon="4.364">
        <ele>862</ele>
        <time>2021-11-23T10:00:14+01:00</time>
      </trkpt>
      <trkpt lat="45.85439" lon="4.36571">
        <ele>880</ele>
        <time>2021-11-23T10:00:19+01:00</time>
      </trkpt>
      <trkpt lat="45.85152" lon="4.37046">
        <ele>926</ele>
        <time>2021-11-23T10:00:24+01:00</time>
      </trkpt>
      <trkpt lat="45.85097" lon="4.37265">
        <ele>927</ele>
        <time>2021-11-23T10:00:29+01:00</time>
      </trkpt>
      <trkpt lat="45.84914" lon="4.37629">
        <ele>974</ele>
        <time>2021-11-23T10:00:34+01:00</time>
      </trkpt>
      <trkpt lat="45.84868" lon="4.37774">
        <ele>971</ele>
        <time>2021-11-23T10:00:39+01:00</time>
      </trkpt>
      <trkpt lat="45.84789" lon="4.38005">
        <ele>965</ele>
        <time>2021-11-23T10:00:44+01:00</time>
      </trkpt>
      <trkpt lat="45.848" lon="4.38357">
        <ele>955</ele>
        <time>2021-11-23T10:00:49+01:00</time>
      </trkpt>
      <trkpt lat="45.84753" lon="4.38525">
        <ele>952</ele>
        <time>2021-11-23T10:00:54+01:00</time>
      </trkpt>
      <trkpt lat="45.84743" lon="4.39085">
        <ele>920</ele>
        <time>2021-11-23T10:00:59+01:00</time>
      </trkpt>
      <trkpt lat="45.84614" lon="4.38889">
        <ele>935</ele>
        <time>2021-11-23T10:01:04+01:00</time>
      </trkpt>
      <trkpt lat="45.84328" lon="4.3878">
        <ele>912</ele>
        <time>2021-11-23T10:01:09+01:00</time>
      </trkpt>
      <trkpt lat="45.84265" lon="4.3887">
        <ele>910</ele>
        <time>2021-11-23T10:01:14+01:00</time>
      </trkpt>
      <trkpt lat="45.8417" lon="4.39136">
        <ele>889</ele>
        <time>2021-11-23T10:01:19+01:00</time>
      </trkpt>
      <trkpt lat="45.8396" lon="4.39308">
        <ele>865</ele>
        <time>2021-11-23T10:01:24+01:00</time>
      </trkpt>
      <trkpt lat="45.83813" lon="4.39472">
        <ele>860</ele>
        <time>2021-11-23T10:01:29+01:00</time>
      </trkpt>
      <trkpt lat="45.83701" lon="4.39551">
        <ele>845</ele>
        <time>2021-11-23T10:01:34+01:00</time>
      </trkpt>
      <trkpt lat="45.83592" lon="4.39715">
        <ele>838</ele>
        <time>2021-11-23T10:01:39+01:00</time>
      </trkpt>
      <trkpt lat="45.83475" lon="4.39621">
        <ele>823</ele>
        <time>2021-11-23T10:01:44+01:00</time>
      </trkpt>
      <trkpt lat="45.83409" lon="4.39621">
        <ele>814</ele>
        <time>2021-11-23T10:01:49+01:00</time>
      </trkpt>
      <trkpt lat="45.83368" lon="4.39582">
        <ele>824</ele>
        <time>2021-11-23T10:01:54+01:00</time>
      </trkpt>
      <trkpt lat="45.83303" lon="4.39723">
        <ele>820</ele>
        <time>2021-11-23T10:01:59+01:00</time>
      </trkpt>
      <trkpt lat="45.83202" lon="4.39825">
        <ele>822</ele>
        <time>2021-11-23T10:02:04+01:00</time>
      </trkpt>
      <trkpt lat="45.83167" lon="4.39911">
        <ele>809</ele>
        <time>2021-11-23T10:02:09+01:00</time>
      </trkpt>
      <trkpt lat="45.8309" lon="4.39985">
        <ele>818</ele>
        <time>2021-11-23T10:02:14+01:00</time>
      </trkpt>
      <trkpt lat="45.83028" lon="4.40134">
        <ele>814</ele>
        <time>2021-11-23T10:02:19+01:00</time>
      </trkpt>
      <trkpt lat="45.82943" lon="4.40185">
        <ele>817</ele>
        <time>2021-11-23T10:02:24+01:00</time>
      </trkpt>
      <trkpt lat="45.82861" lon="4.40271">
        <ele>806</ele>
        <time>2021-11-23T10:02:29+01:00</time>
      </trkpt>
      <trkpt lat="45.82659" lon="4.40181">
        <ele>807</ele>
        <time>2021-11-23T10:02:34+01:00</time>
      </trkpt>
      <trkpt lat="45.82501" lon="4.40032">
        <ele>803</ele>
        <time>2021-11-23T10:02:39+01:00</time>
      </trkpt>
      <trkpt lat="45.82253" lon="4.39864">
        <ele>789</ele>
        <time>2021-11-23T10:02:44+01:00</time>
      </trkpt>
      <trkpt lat="45.82122" lon="4.39883">
        <ele>764</ele>
        <time>2021-11-23T10:02:49+01:00</time>
      </trkpt>
      <trkpt lat="45.81994" lon="4.40016">
        <ele>754</ele>
        <time>2021-11-23T10:02:54+01:00</time>
      </trkpt>
      <trkpt lat="45.8189" lon="4.40189">
        <ele>739</ele>
        <time>2021-11-23T10:02:59+01:00</time>
      </trkpt>
      <trkpt lat="45.8171" lon="4.4049">
        <ele>725</ele>
        <time>2021-11-23T10:03:04+01:00</time>
      </trkpt>
      <trkpt lat="45.81659" lon="4.40482">
        <ele>724</ele>
        <time>2021-11-23T10:03:09+01:00</time>
      </trkpt>
      <trkpt lat="45.81552" lon="4.40603">
        <ele>738</ele>
        <time>2021-11-23T10:03:14+01:00</time>
      </trkpt>
      <trkpt lat="45.81438" lon="4.40768">
        <ele>754</ele>
        <time>2021-11-23T10:03:19+01:00</time>
      </trkpt>
      <trkpt lat="45.8132" lon="4.40862">
        <ele>750</ele>
        <time>2021-11-23T10:03:24+01:00</time>
      </trkpt>
      <trkpt lat="45.81236" lon="4.40909">
        <ele>746</ele>
        <time>2021-11-23T10:03:29+01:00</time>
      </trkpt>
      <trkpt lat="45.81105" lon="4.41046">
        <ele>741</ele>
        <time>2021-11-23T10:03:34+01:00</time>
      </trkpt>
      <trkpt lat="45.81009" lon="4.41085">
        <ele>736</ele>
        <time>2021-11-23T10:03:39+01:00</time>
      </trkpt>
      <trkpt lat="45.80957" lon="4.41194">
        <ele>734</ele>
        <time>2021-11-23T10:03:44+01:00</time>
      </trkpt>
      <trkpt lat="45.80897" lon="4.41429">
        <ele>728</ele>
        <time>2021-11-23T10:03:49+01:00</time>
      </trkpt>
      <trkpt lat="45.80696" lon="4.41613">
        <ele>725</ele>
        <time>2021-11-23T10:03:54+01:00</time>
      </trkpt>
      <trkpt lat="45.80633" lon="4.41727">
        <ele>718</ele>
        <time>2021-11-23T10:03:59+01:00</time>
      </trkpt>
      <trkpt lat="45.80453" lon="4.41946">
        <ele>697</ele>
        <time>2021-11-23T10:04:04+01:00</time>
      </trkpt>
      <trkpt lat="45.80254" lon="4.42271">
        <ele>674</ele>
        <time>2021-11-23T10:04:09+01:00</time>
      </trkpt>
      <trkpt lat="45.80357" lon="4.42548">
        <ele>706</ele>
        <time>2021-11-23T10:04:14+01:00</time>
      </trkpt>
      <trkpt lat="45.80235" lon="4.42595">
        <ele>704</ele>
        <time>2021-11-23T10:04:19+01:00</time>
      </trkpt>
      <trkpt lat="45.80074" lon="4.4274">
        <ele>708</ele>
        <time>2021-11-23T10:04:24+01:00</time>
      </trkpt>
      <trkpt lat="45.79907" lon="4.42748">
        <ele>719</ele>
        <time>2021-11-23T10:04:29+01:00</time>
      </trkpt>
      <trkpt lat="45.79872" lon="4.42795">
        <ele>722</ele>
        <time>2021-11-23T10:04:34+01:00</time>
      </trkpt>
      <trkpt lat="45.79948" lon="4.42897">
        <ele>731</ele>
        <time>2021-11-23T10:04:39+01:00</time>
      </trkpt>
      <trkpt lat="45.79891" lon="4.43061">
        <ele>743</ele>
        <time>2021-11-23T10:04:44+01:00</time>
      </trkpt>
      <trkpt lat="45.79787" lon="4.43206">
        <ele>748</ele>
        <time>2021-11-23T10:04:49+01:00</time>
      </trkpt>
      <trkpt lat="45.79757" lon="4.43288">
        <ele>748</ele>
        <time>2021-11-23T10:04:54+01:00</time>
      </trkpt>
      <trkpt lat="45.79722" lon="4.43445">
        <ele>748</ele>
        <time>2021-11-23T10:04:59+01:00</time>
      </trkpt>
      <trkpt lat="45.79577" lon="4.43441">
        <ele>747</ele>
        <time>2021-11-23T10:05:04+01:00</time>
      </trkpt>
      <trkpt lat="45.79522" lon="4.43652">
        <ele>753</ele>
        <time>2021-11-23T10:05:09+01:00</time>
      </trkpt>
      <trkpt lat="45.79462" lon="4.43691">
        <ele>749</ele>
        <time>2021-11-23T10:05:14+01:00</time>
      </trkpt>
      <trkpt lat="45.79438" lon="4.43758">
        <ele>754</ele>
        <time>2021-11-23T10:05:19+01:00</time>
      </trkpt>
      <trkpt lat="45.79331" lon="4.4375">
        <ele>750</ele>
        <time>2021-11-23T10:05:24+01:00</time>
      </trkpt>
      <trkpt lat="45.79329" lon="4.43832">
        <ele>747</ele>
        <time>2021-11-23T10:05:29+01:00</time>
      </trkpt>
      <trkpt lat="45.79372" lon="4.43926">
        <ele>737</ele>
        <time>2021-11-23T10:05:34+01:00</time>
      </trkpt>
      <trkpt lat="45.79351" lon="4.44067">
        <ele>726</ele>
        <time>2021-11-23T10:05:39+01:00</time>
      </trkpt>
      <trkpt lat="45.79334" lon="4.44486">
        <ele>724</ele>
        <time>2021-11-23T10:05:44+01:00</time>
      </trkpt>
      <trkpt lat="45.79301" lon="4.4454">
        <ele>730</ele>
        <time>2021-11-23T10:05:49+01:00</time>
      </trkpt>
      <trkpt lat="45.79413" lon="4.44619">
        <ele>722</ele>
        <time>2021-11-23T10:05:54+01:00</time>
      </trkpt>
      <trkpt lat="45.79435" lon="4.4476">
        <ele>714</ele>
        <time>2021-11-23T10:05:59+01:00</time>
      </trkpt>
      <trkpt lat="45.79389" lon="4.4501">
        <ele>709</ele>
        <time>2021-11-23T10:06:04+01:00</time>
      </trkpt>
      <trkpt lat="45.79345" lon="4.45171">
        <ele>703</ele>
        <time>2021-11-23T10:06:09+01:00</time>
      </trkpt>
      <trkpt lat="45.7949" lon="4.45264">
        <ele>691</ele>
        <time>2021-11-23T10:06:14+01:00</time>
      </trkpt>
      <trkpt lat="45.79512" lon="4.45503">
        <ele>665</ele>
        <time>2021-11-23T10:06:19+01:00</time>
      </trkpt>
      <trkpt lat="45.79424" lon="4.45695">
        <ele>643</ele>
        <time>2021-11-23T10:06:24+01:00</time>
      </trkpt>
      <trkpt lat="45.79356" lon="4.45808">
        <ele>640</ele>
        <time>2021-11-23T10:06:29+01:00</time>
      </trkpt>
      <trkpt lat="45.79315" lon="4.45949">
        <ele>643</ele>
        <time>2021-11-23T10:06:34+01:00</time>
      </trkpt>
      <trkpt lat="45.79263" lon="4.46102">
        <ele>645</ele>
        <time>2021-11-23T10:06:39+01:00</time>
      </trkpt>
      <trkpt lat="45.79271" lon="4.46215">
        <ele>647</ele>
        <time>2021-11-23T10:06:44+01:00</time>
      </trkpt>
      <trkpt lat="45.7931" lon="4.46329">
        <ele>650</ele>
        <time>2021-11-23T10:06:49+01:00</time>
      </trkpt>
      <trkpt lat="45.79247" lon="4.46501">
        <ele>654</ele>
        <time>2021-11-23T10:06:54+01:00</time>
      </trkpt>
      <trkpt lat="45.79113" lon="4.46572">
        <ele>661</ele>
        <time>2021-11-23T10:06:59+01:00</time>
      </trkpt>
      <trkpt lat="45.79007" lon="4.46634">
        <ele>667</ele>
        <time>2021-11-23T10:07:04+01:00</time>
      </trkpt>
      <trkpt lat="45.78985" lon="4.46728">
        <ele>662</ele>
        <time>2021-11-23T10:07:09+01:00</time>
      </trkpt>
      <trkpt lat="45.79001" lon="4.46826">
        <ele>656</ele>
        <time>2021-11-23T10:07:14+01:00</time>
      </trkpt>
      <trkpt lat="45.78881" lon="4.47006">
        <ele>646</ele>
        <time>2021-11-23T10:07:19+01:00</time>
      </trkpt>
      <trkpt lat="45.78772" lon="4.4717">
        <ele>635</ele>
        <time>2021-11-23T10:07:24+01:00</time>
      </trkpt>
      <trkpt lat="45.78614" lon="4.47229">
        <ele>628</ele>
        <time>2021-11-23T10:07:29+01:00</time>
      </trkpt>
      <trkpt lat="45.78485" lon="4.47421">
        <ele>651</ele>
        <time>2021-11-23T10:07:34+01:00</time>
      </trkpt>
      <trkpt lat="45.78368" lon="4.47429">
        <ele>664</ele>
        <time>2021-11-23T10:07:39+01:00</time>
      </trkpt>
      <trkpt lat="45.7821" lon="4.47761">
        <ele>691</ele>
        <time>2021-11-23T10:07:44+01:00</time>
      </trkpt>
      <trkpt lat="45.78035" lon="4.47992">
        <ele>700</ele>
        <time>2021-11-23T10:07:49+01:00</time>
      </trkpt>
      <trkpt lat="45.78027" lon="4.4809">
        <ele>711</ele>
        <time>2021-11-23T10:07:54+01:00</time>
      </trkpt>
      <trkpt lat="45.77964" lon="4.48207">
        <ele>721</ele>
        <time>2021-11-23T10:07:59+01:00</time>
      </trkpt>
      <trkpt lat="45.77923" lon="4.48333">
        <ele>736</ele>
        <time>2021-11-23T10:08:04+01:00</time>
      </trkpt>
      <trkpt lat="45.77754" lon="4.48536">
        <ele>729</ele>
        <time>2021-11-23T10:08:09+01:00</time>
      </trkpt>
      <trkpt lat="45.77642" lon="4.48638">
        <ele>743</ele>
        <time>2021-11-23T10:08:14+01:00</time>
      </trkpt>
      <trkpt lat="45.77577" lon="4.48751">
        <ele>748</ele>
        <time>2021-11-23T10:08:19+01:00</time>
      </trkpt>
      <trkpt lat="45.77519" lon="4.48822">
        <ele>750</ele>
        <time>2021-11-23T10:08:24+01:00</time>
      </trkpt>
      <trkpt lat="45.77497" lon="4.49307">
        <ele>740</ele>
        <time>2021-11-23T10:08:29+01:00</time>
      </trkpt>
      <trkpt lat="45.77517" lon="4.49554">
        <ele>740</ele>
        <time>2021-11-23T10:08:34+01:00</time>
      </trkpt>
      <trkpt lat="45.77557" lon="4.49714">
        <ele>711</ele>
        <time>2021-11-23T10:08:39+01:00</time>
      </trkpt>
      <trkpt lat="45.7756" lon="4.49945">
        <ele>692</ele>
        <time>2021-11-23T10:08:44+01:00</time>
      </trkpt>
      <trkpt lat="45.77454" lon="4.49941">
        <ele>684</ele>
        <time>2021-11-23T10:08:49+01:00</time>
      </trkpt>
      <trkpt lat="45.77304" lon="4.49851">
        <ele>677</ele>
        <time>2021-11-23T10:08:54+01:00</time>
      </trkpt>
      <trkpt lat="45.77208" lon="4.49875">
        <ele>663</ele>
        <time>2021-11-23T10:08:59+01:00</time>
      </trkpt>
      <trkpt lat="45.77156" lon="4.4982">
        <ele>671</ele>
        <time>2021-11-23T10:09:04+01:00</time>
      </trkpt>
      <trkpt lat="45.76968" lon="4.49933">
        <ele>646</ele>
        <time>2021-11-23T10:09:09+01:00</time>
      </trkpt>
      <trkpt lat="45.76739" lon="4.5018">
        <ele>577</ele>
        <time>2021-11-23T10:09:14+01:00</time>
      </trkpt>
      <trkpt lat="45.76698" lon="4.50113">
        <ele>571</ele>
        <time>2021-11-23T10:09:19+01:00</time>
      </trkpt>
      <trkpt lat="45.767" lon="4.49961">
        <ele>575</ele>
        <time>2021-11-23T10:09:24+01:00</time>
      </trkpt>
      <trkpt lat="45.76662" lon="4.49918">
        <ele>569</ele>
        <time>2021-11-23T10:09:29+01:00</time>
      </trkpt>
      <trkpt lat="45.76449" lon="4.49882">
        <ele>555</ele>
        <time>2021-11-23T10:09:34+01:00</time>
      </trkpt>
      <trkpt lat="45.76291" lon="4.49931">
        <ele>549</ele>
        <time>2021-11-23T10:09:39+01:00</time>
      </trkpt>
      <trkpt lat="45.76271" lon="4.49897">
        <ele>553</ele>
        <time>2021-11-23T10:09:44+01:00</time>
      </trkpt>
      <trkpt lat="45.76217" lon="4.49885">
        <ele>553</ele>
        <time>2021-11-23T10:09:49+01:00</time>
      </trkpt>
      <trkpt lat="45.76185" lon="4.4988">
        <ele>551</ele>
        <time>2021-11-23T10:09:54+01:00</time>
      </trkpt>
    </trkseg>
  </trk>
</gpx>